createdAt,value
2019-04-16T00:02:07.511Z,4.12
2019-04-16T00:05:11.180Z,4.09
2019-04-16T00:07:47.112Z,4.07
2019-04-16T00:10:34.465Z,4.00
2019-04-16T00:13:23.646Z,3.95
2019-04-16T00:15:55.048Z,3.95
2019-04-16T00:18:24.659Z,3.94
2019-04-16T00:21:13.365Z,3.93
2019-04-16T00:23:56.928Z,3.89
2019-04-16T00:26:27.487Z,3.87
2019-04-16T00:29:01.657Z,3.80
2019-04-16T00:31:28.834Z,3.75
2019-04-16T00:33:58.504Z,3.72
2019-04-16T00:36:28.233Z,3.67
2019-04-16T00:38:57.893Z,3.62
2019-04-16T00:41:28.022Z,3.57
2019-04-16T00:43:57.687Z,3.56
2019-04-16T00:46:27.407Z,3.53
2019-04-16T00:48:57.145Z,3.50
2019-04-16T00:51:26.827Z,3.49
2019-04-16T00:53:56.948Z,3.50
2019-04-16T00:56:27.303Z,3.48
2019-04-16T00:58:56.997Z,3.45
2019-04-16T01:01:26.655Z,3.43
2019-04-16T01:03:56.389Z,3.35
2019-04-16T01:06:26.978Z,3.32
2019-04-16T01:08:56.660Z,3.25
2019-04-16T01:11:26.371Z,3.18
2019-04-16T01:13:56.318Z,3.13
2019-04-16T01:16:26.213Z,3.16
2019-04-16T01:18:56.066Z,3.13
2019-04-16T01:21:25.720Z,3.16
2019-04-16T01:23:55.384Z,3.15
2019-04-16T01:26:26.881Z,3.13
2019-04-16T01:29:04.413Z,3.13
2019-04-16T01:31:55.897Z,3.11
2019-04-16T01:34:48.425Z,3.11
2019-04-16T01:37:35.575Z,3.07
2019-04-16T01:40:06.457Z,3.03
2019-04-16T01:42:36.120Z,3.02
2019-04-16T01:45:06.358Z,3.06
2019-04-16T01:47:37.267Z,3.05
2019-04-16T01:50:07.710Z,3.00
2019-04-16T01:52:37.474Z,3.00
2019-04-16T01:55:07.295Z,2.93
2019-04-16T01:57:37.039Z,2.91
2019-04-16T02:00:08.552Z,2.88
2019-04-16T02:02:39.446Z,2.87
2019-04-16T02:05:09.260Z,2.88
2019-04-16T02:07:38.920Z,2.90
2019-04-16T02:10:08.886Z,2.90
2019-04-16T02:12:38.503Z,2.89
2019-04-16T02:15:09.227Z,2.90
2019-04-16T02:17:38.872Z,2.91
2019-04-16T02:20:09.300Z,2.87
2019-04-16T02:22:38.949Z,2.83
2019-04-16T02:25:09.066Z,2.81
2019-04-16T02:27:38.713Z,2.77
2019-04-16T02:30:08.755Z,2.73
2019-04-16T02:32:38.383Z,2.70
2019-04-16T02:35:08.324Z,2.69
2019-04-16T02:37:37.991Z,2.71
2019-04-16T02:40:16.958Z,2.70
2019-04-16T02:42:40.626Z,2.66
2019-04-16T02:45:10.496Z,2.63
2019-04-16T02:47:42.148Z,2.59
2019-04-16T02:50:15.912Z,2.58
2019-04-16T02:52:56.251Z,2.52
2019-04-16T02:55:35.397Z,2.53
2019-04-16T02:58:11.773Z,2.52
2019-04-16T03:01:02.229Z,2.45
2019-04-16T03:03:39.331Z,2.44
2019-04-16T03:06:09.080Z,2.40
2019-04-16T03:08:38.846Z,2.40
2019-04-16T03:11:08.579Z,2.36
2019-04-16T03:13:38.238Z,2.36
2019-04-16T03:16:24.893Z,2.35
2019-04-16T03:19:06.250Z,2.31
2019-04-16T03:21:36.123Z,2.27
2019-04-16T03:24:09.053Z,2.26
2019-04-16T03:26:37.245Z,2.24
2019-04-16T03:29:07.003Z,2.23
2019-04-16T03:31:36.674Z,2.20
2019-04-16T03:34:06.534Z,2.16
2019-04-16T03:36:36.201Z,2.12
2019-04-16T03:39:12.027Z,2.12
2019-04-16T03:41:38.500Z,2.11
2019-04-16T03:44:08.153Z,2.08
2019-04-16T03:46:40.108Z,2.02
2019-04-16T03:49:09.221Z,2.03
2019-04-16T03:51:38.887Z,2.03
2019-04-16T03:54:08.562Z,2.00
2019-04-16T03:56:38.233Z,1.98
2019-04-16T03:59:11.851Z,1.98
2019-04-16T04:01:39.239Z,1.95
2019-04-16T04:04:09.111Z,1.94
2019-04-16T04:06:39.687Z,1.93
2019-04-16T04:09:10.162Z,1.94
2019-04-16T04:11:41.157Z,1.93
2019-04-16T04:14:11.281Z,1.92
2019-04-16T04:16:40.970Z,1.91
2019-04-16T04:19:14.092Z,1.88
2019-04-16T04:21:42.121Z,1.87
2019-04-16T04:24:11.786Z,1.85
2019-04-16T04:26:42.419Z,1.84
2019-04-16T04:29:13.207Z,1.84
2019-04-16T04:31:42.875Z,1.86
2019-04-16T04:34:15.955Z,1.86
2019-04-16T04:36:43.927Z,1.93
2019-04-16T04:39:15.483Z,2.13
2019-04-16T04:41:44.963Z,2.30
2019-04-16T04:44:14.622Z,2.65
2019-04-16T04:46:46.063Z,3.01
2019-04-16T04:49:16.859Z,3.38
2019-04-16T04:51:46.533Z,3.67
2019-04-16T04:54:16.230Z,3.92
2019-04-16T04:56:45.892Z,4.11
2019-04-16T04:59:15.680Z,4.37
2019-04-16T05:01:45.327Z,4.61
2019-04-16T05:04:42.803Z,4.88
2019-04-16T05:07:12.876Z,5.05
2019-04-16T05:09:42.534Z,5.35
2019-04-16T05:12:12.182Z,5.59
2019-04-16T05:14:57.114Z,5.84
2019-04-16T05:17:24.827Z,6.03
2019-04-16T05:19:54.594Z,6.29
2019-04-16T05:22:24.266Z,6.50
2019-04-16T05:24:53.941Z,6.65
2019-04-16T05:27:23.609Z,6.92
2019-04-16T05:29:53.340Z,7.19
2019-04-16T05:32:25.927Z,7.38
2019-04-16T05:34:55.074Z,7.52
2019-04-16T05:37:24.850Z,7.65
2019-04-16T05:39:58.560Z,7.80
2019-04-16T05:42:26.393Z,8.05
2019-04-16T05:44:56.257Z,8.16
2019-04-16T05:47:25.900Z,8.31
2019-04-16T05:49:58.063Z,8.42
2019-04-16T05:52:26.941Z,8.50
2019-04-16T05:55:04.577Z,8.76
2019-04-16T05:57:36.262Z,9.02
2019-04-16T06:00:10.365Z,9.27
2019-04-16T06:02:42.041Z,9.45
2019-04-16T06:05:11.950Z,9.64
2019-04-16T06:07:42.576Z,9.98
2019-04-16T06:10:16.702Z,10.12
2019-04-16T06:12:58.318Z,10.32
2019-04-16T06:15:36.010Z,10.37
2019-04-16T06:18:23.125Z,10.49
2019-04-16T06:21:22.602Z,10.58
2019-04-16T06:24:04.247Z,11.04
2019-04-16T06:26:55.996Z,11.40
2019-04-16T06:29:46.912Z,11.55
2019-04-16T06:32:43.977Z,11.90
2019-04-16T06:35:44.381Z,12.15
2019-04-16T06:38:18.202Z,12.12
2019-04-16T06:40:54.803Z,12.44
2019-04-16T06:43:29.744Z,12.76
2019-04-16T06:46:21.143Z,12.77
2019-04-16T06:49:02.067Z,12.81
2019-04-16T06:52:05.570Z,13.12
2019-04-16T06:54:52.908Z,13.52
2019-04-16T06:57:43.870Z,13.61
2019-04-16T07:00:25.140Z,13.67
2019-04-16T07:03:12.471Z,13.57
2019-04-16T07:06:04.851Z,13.52
2019-04-16T07:08:52.256Z,13.79
2019-04-16T07:11:22.345Z,14.05
2019-04-16T07:13:52.003Z,14.27
2019-04-16T07:16:21.661Z,14.56
2019-04-16T07:18:51.332Z,14.90
2019-04-16T07:21:21.050Z,15.07
2019-04-16T07:23:56.847Z,15.34
2019-04-16T07:26:22.183Z,15.61
2019-04-16T07:28:58.979Z,15.64
2019-04-16T07:31:34.487Z,15.62
2019-04-16T07:34:27.588Z,15.85
2019-04-16T07:37:07.478Z,16.13
2019-04-16T07:39:50.059Z,16.60
2019-04-16T07:42:27.115Z,16.85
2019-04-16T07:45:13.142Z,16.57
2019-04-16T07:48:05.645Z,16.51
2019-04-16T07:50:53.164Z,16.84
2019-04-16T07:53:41.478Z,17.08
2019-04-16T07:56:16.081Z,17.10
2019-04-16T07:58:45.741Z,16.94
2019-04-16T08:01:16.502Z,17.30
2019-04-16T08:03:46.465Z,17.53
2019-04-16T08:06:16.171Z,18.05
2019-04-16T08:08:45.916Z,18.38
2019-04-16T08:11:15.700Z,18.62
2019-04-16T08:13:45.907Z,18.49
2019-04-16T08:16:15.621Z,18.82
2019-04-16T08:18:49.738Z,19.07
2019-04-16T08:21:22.604Z,19.38
2019-04-16T08:23:56.908Z,19.21
2019-04-16T08:26:26.592Z,19.12
2019-04-16T08:28:56.282Z,18.88
2019-04-16T08:31:28.300Z,19.22
2019-04-16T08:33:58.138Z,19.41
2019-04-16T08:36:27.823Z,19.46
2019-04-16T08:38:57.708Z,19.41
2019-04-16T08:41:27.483Z,19.59
2019-04-16T08:43:59.720Z,19.44
2019-04-16T08:46:28.554Z,18.86
2019-04-16T08:48:58.246Z,19.07
2019-04-16T08:51:31.269Z,19.63
2019-04-16T08:54:00.376Z,20.24
2019-04-16T08:56:30.055Z,20.52
2019-04-16T08:59:01.236Z,20.54
2019-04-16T09:01:33.011Z,19.77
2019-04-16T09:04:03.252Z,19.62
2019-04-16T09:06:32.956Z,19.49
2019-04-16T09:09:13.534Z,19.49
2019-04-16T09:11:44.348Z,19.44
2019-04-16T09:14:16.849Z,19.49
2019-04-16T09:16:56.249Z,19.30
2019-04-16T09:19:25.960Z,19.25
2019-04-16T09:21:56.591Z,19.18
2019-04-16T09:24:32.557Z,19.18
2019-04-16T09:27:20.270Z,19.30
2019-04-16T09:30:10.788Z,19.12
2019-04-16T09:32:44.278Z,19.04
2019-04-16T09:35:20.601Z,19.47
2019-04-16T09:38:13.187Z,19.08
2019-04-16T09:40:52.983Z,19.02
2019-04-16T09:43:23.893Z,19.30
2019-04-16T09:45:54.144Z,19.72
2019-04-16T09:48:23.880Z,20.24
2019-04-16T09:50:53.554Z,19.66
2019-04-16T09:53:33.483Z,19.12
2019-04-16T09:55:54.767Z,19.64
2019-04-16T09:58:25.204Z,20.30
2019-04-16T10:01:02.398Z,20.63
2019-04-16T10:03:35.046Z,20.95
2019-04-16T10:06:17.216Z,20.78
2019-04-16T10:08:46.881Z,20.53
2019-04-16T10:11:18.780Z,20.14
2019-04-16T10:13:48.002Z,19.85
2019-04-16T10:16:19.790Z,20.07
2019-04-16T10:18:49.543Z,20.32
2019-04-16T10:21:20.340Z,20.40
2019-04-16T10:24:12.978Z,20.44
2019-04-16T10:26:41.170Z,20.20
2019-04-16T10:29:14.272Z,20.05
2019-04-16T10:31:44.001Z,20.00
2019-04-16T10:34:13.675Z,19.67
2019-04-16T10:36:43.375Z,19.77
2019-04-16T10:39:30.437Z,20.11
2019-04-16T10:42:14.719Z,19.90
2019-04-16T10:45:06.416Z,19.98
2019-04-16T10:47:48.615Z,20.11
2019-04-16T10:50:28.398Z,20.30
2019-04-16T10:53:24.097Z,20.04
2019-04-16T10:56:11.258Z,19.60
2019-04-16T10:59:07.240Z,19.70
2019-04-16T11:04:48.271Z,19.77
2019-04-16T11:07:21.867Z,19.41
2019-04-16T11:09:51.519Z,19.20
2019-04-16T11:12:21.281Z,19.51
2019-04-16T11:14:51.132Z,19.82
2019-04-16T11:17:22.523Z,19.55
2019-04-16T11:19:54.122Z,19.55
2019-04-16T11:22:24.013Z,19.84
2019-04-16T11:24:53.661Z,19.49
2019-04-16T11:27:23.338Z,19.45
2019-04-16T11:29:53.017Z,19.61
2019-04-16T11:32:25.963Z,19.87
2019-04-16T11:34:56.721Z,19.84
2019-04-16T11:37:26.360Z,20.00
2019-04-16T11:39:56.177Z,19.90
2019-04-16T11:42:25.844Z,19.29
2019-04-16T11:44:55.599Z,19.18
2019-04-16T11:47:28.030Z,19.07
2019-04-16T11:49:56.658Z,18.95
2019-04-16T11:52:26.375Z,19.42
2019-04-16T11:54:56.066Z,19.69
2019-04-16T11:57:25.804Z,19.51
2019-04-16T12:00:06.454Z,19.36
2019-04-16T12:02:33.712Z,19.44
2019-04-16T12:05:11.878Z,19.47
2019-04-16T12:07:55.457Z,19.51
2019-04-16T12:10:57.836Z,19.44
2019-04-16T12:13:45.103Z,19.24
2019-04-16T12:16:39.631Z,19.60
2019-04-16T12:19:17.003Z,19.89
2019-04-16T12:22:04.365Z,19.77
2019-04-16T12:25:05.059Z,20.06
2019-04-16T12:28:12.494Z,19.84
2019-04-16T12:30:54.272Z,19.14
2019-04-16T12:33:49.207Z,18.74
2019-04-16T12:36:32.959Z,18.64
2019-04-16T12:39:11.912Z,18.70
2019-04-16T12:42:10.581Z,18.81
2019-04-16T12:44:48.949Z,19.08
2019-04-16T12:47:36.117Z,19.31
2019-04-16T12:50:16.703Z,19.62
2019-04-16T12:52:58.805Z,19.59
2019-04-16T12:55:37.760Z,19.63
2019-04-16T12:58:38.584Z,19.45
2019-04-16T13:01:25.381Z,19.12
2019-04-16T13:04:06.559Z,18.59
2019-04-16T13:06:55.265Z,18.05
2019-04-16T13:09:29.773Z,17.44
2019-04-16T13:12:17.541Z,16.69
2019-04-16T13:15:12.197Z,16.31
2019-04-16T13:18:04.744Z,16.06
2019-04-16T13:20:57.064Z,15.86
2019-04-16T13:23:44.057Z,15.75
2019-04-16T13:26:31.117Z,15.60
2019-04-16T13:29:03.070Z,15.72
2019-04-16T13:31:32.821Z,15.88
2019-04-16T13:34:02.551Z,15.96
2019-04-16T13:36:32.225Z,16.05
2019-04-16T13:39:15.576Z,15.94
2019-04-16T13:41:45.260Z,15.98
2019-04-16T13:44:17.211Z,16.11
2019-04-16T13:46:47.972Z,16.06
2019-04-16T13:49:24.492Z,15.89
2019-04-16T13:51:57.310Z,15.73
2019-04-16T13:54:44.558Z,15.73
2019-04-16T13:57:16.769Z,15.63
2019-04-16T14:00:02.974Z,15.69
2019-04-16T14:02:52.041Z,15.88
2019-04-16T14:05:23.666Z,16.08
2019-04-16T14:07:53.318Z,15.96
2019-04-16T14:10:23.348Z,15.82
2019-04-16T14:12:53.060Z,15.68
2019-04-16T14:15:31.763Z,15.72
2019-04-16T14:17:59.176Z,15.78
2019-04-16T14:20:27.396Z,15.81
2019-04-16T14:22:57.105Z,15.95
2019-04-16T14:25:26.786Z,15.89
2019-04-16T14:28:01.924Z,15.82
2019-04-16T14:30:32.415Z,15.87
2019-04-16T14:33:02.138Z,15.90
2019-04-16T14:35:34.363Z,15.89
2019-04-16T14:38:04.221Z,15.80
2019-04-16T14:40:35.209Z,15.77
2019-04-16T14:43:04.872Z,15.83
2019-04-16T14:45:55.224Z,15.96
2019-04-16T14:48:10.179Z,15.96
2019-04-16T14:50:40.103Z,15.80
2019-04-16T14:53:10.130Z,15.77
2019-04-16T14:55:59.804Z,15.84
2019-04-16T14:58:38.062Z,15.88
2019-04-16T15:01:38.681Z,15.95
2019-04-16T15:04:21.636Z,16.00
2019-04-16T15:07:05.986Z,15.92
2019-04-16T15:09:50.026Z,15.88
2019-04-16T15:12:35.730Z,15.86
2019-04-16T15:15:16.140Z,15.79
2019-04-16T15:18:06.258Z,15.81
2019-04-16T15:20:58.246Z,15.85
2019-04-16T15:23:49.643Z,15.80
2019-04-16T15:26:37.149Z,15.76
2019-04-16T15:29:23.424Z,15.81
2019-04-16T15:32:17.758Z,15.77
2019-04-16T15:34:48.490Z,15.81
2019-04-16T15:37:25.682Z,15.83
2019-04-16T15:39:59.940Z,15.78
2019-04-16T15:42:49.060Z,15.76
2019-04-16T15:45:25.635Z,15.79
2019-04-16T15:48:14.869Z,15.76
2019-04-16T15:51:25.222Z,15.68
2019-04-16T15:54:16.868Z,15.69
2019-04-16T15:57:11.374Z,15.66
2019-04-16T15:59:51.569Z,15.66
2019-04-16T16:02:36.704Z,15.63
2019-04-16T16:05:26.849Z,15.61
2019-04-16T16:08:14.520Z,15.61
2019-04-16T16:10:49.433Z,15.60
2019-04-16T16:13:19.123Z,15.54
2019-04-16T16:15:48.839Z,15.51
2019-04-16T16:18:18.745Z,15.47
2019-04-16T16:20:48.471Z,15.47
2019-04-16T16:23:18.550Z,15.46
2019-04-16T16:25:48.399Z,15.48
2019-04-16T16:28:18.219Z,15.48
2019-04-16T16:30:47.931Z,15.45
2019-04-16T16:33:17.870Z,15.45
2019-04-16T16:35:57.634Z,15.42
2019-04-16T16:38:21.004Z,15.37
2019-04-16T16:40:50.655Z,15.32
2019-04-16T16:43:20.462Z,15.29
2019-04-16T16:46:00.889Z,15.24
2019-04-16T16:48:30.656Z,15.21
2019-04-16T16:51:00.619Z,15.15
2019-04-16T16:53:36.488Z,15.08
2019-04-16T16:56:13.603Z,15.03
2019-04-16T16:58:51.814Z,15.03
2019-04-16T17:01:39.335Z,15.02
2019-04-16T17:04:20.199Z,14.98
2019-04-16T17:06:50.065Z,14.92
2019-04-16T17:09:31.229Z,14.85
2019-04-16T17:12:01.371Z,14.80
2019-04-16T17:14:36.216Z,14.75
2019-04-16T17:17:13.329Z,14.70
2019-04-16T17:19:34.326Z,14.66
2019-04-16T17:22:04.091Z,14.61
2019-04-16T17:24:33.791Z,14.53
2019-04-16T17:27:03.688Z,14.43
2019-04-16T17:29:33.470Z,14.37
2019-04-16T17:32:03.298Z,14.31
2019-04-16T17:34:33.009Z,14.24
2019-04-16T17:37:02.771Z,14.17
2019-04-16T17:39:52.778Z,14.08
2019-04-16T17:42:28.268Z,13.98
2019-04-16T17:45:15.502Z,13.88
2019-04-16T17:48:10.074Z,13.78
2019-04-16T17:50:54.932Z,13.69
2019-04-16T17:53:55.758Z,13.59
2019-04-16T17:56:43.031Z,13.54
2019-04-16T17:59:16.684Z,13.44
2019-04-16T18:02:03.802Z,13.36
2019-04-16T18:04:44.596Z,13.30
2019-04-16T18:07:22.044Z,13.20
2019-04-16T18:10:18.987Z,13.11
2019-04-16T18:13:11.088Z,13.01
2019-04-16T18:16:08.428Z,12.96
2019-04-16T18:18:48.467Z,12.89
2019-04-16T18:21:24.448Z,12.77
2019-04-16T18:23:59.768Z,12.69
2019-04-16T18:26:48.490Z,12.63
2019-04-16T18:29:31.826Z,12.53
2019-04-16T18:32:03.706Z,12.47
2019-04-16T18:35:16.079Z,12.41
2019-04-16T18:37:51.774Z,12.33
2019-04-16T18:40:30.040Z,12.26
2019-04-16T18:43:12.808Z,12.16
2019-04-16T18:46:07.270Z,12.08
2019-04-16T18:48:38.528Z,12.01
2019-04-16T18:51:08.196Z,11.94
2019-04-16T18:53:40.330Z,11.90
2019-04-16T18:56:09.690Z,11.85
2019-04-16T18:58:41.700Z,11.80
2019-04-16T19:01:13.827Z,11.74
2019-04-16T19:03:43.593Z,11.69
2019-04-16T19:06:13.290Z,11.63
2019-04-16T19:08:43.064Z,11.57
2019-04-16T19:11:12.960Z,11.54
2019-04-16T19:13:42.632Z,11.49
2019-04-16T19:16:12.458Z,11.48
2019-04-16T19:18:42.134Z,11.43
2019-04-16T19:21:11.802Z,11.36
2019-04-16T19:23:41.472Z,11.33
2019-04-16T19:26:11.153Z,11.25
2019-04-16T19:28:40.824Z,11.17
2019-04-16T19:31:10.518Z,11.10
2019-04-16T19:33:40.174Z,11.06
2019-04-16T19:36:09.933Z,11.02
2019-04-16T19:38:40.635Z,10.98
2019-04-16T19:41:10.330Z,10.93
2019-04-16T19:43:40.068Z,10.89
2019-04-16T19:46:14.947Z,10.89
2019-04-16T19:48:41.132Z,10.92
2019-04-16T19:51:10.795Z,10.90
2019-04-16T19:53:40.487Z,10.92
2019-04-16T19:56:10.147Z,10.89
2019-04-16T19:58:39.826Z,10.86
2019-04-16T20:01:11.991Z,10.83
2019-04-16T20:03:43.381Z,10.76
2019-04-16T20:06:12.465Z,10.78
2019-04-16T20:08:42.202Z,10.79
2019-04-16T20:11:11.902Z,10.76
2019-04-16T20:13:41.754Z,10.72
2019-04-16T20:16:11.876Z,10.67
2019-04-16T20:18:50.827Z,10.63
2019-04-16T20:21:13.168Z,10.58
2019-04-16T20:23:42.850Z,10.48
2019-04-16T20:26:12.517Z,10.40
2019-04-16T20:28:42.331Z,10.38
2019-04-16T20:31:13.617Z,10.33
2019-04-16T20:33:43.321Z,10.32
2019-04-16T20:36:12.976Z,10.27
2019-04-16T20:38:42.655Z,10.24
2019-04-16T20:41:12.306Z,10.20
2019-04-16T20:43:41.977Z,10.14
2019-04-16T20:46:11.631Z,10.10
2019-04-16T20:48:41.931Z,10.09
2019-04-16T20:51:12.698Z,10.05
2019-04-16T20:53:42.409Z,10.00
2019-04-16T20:56:12.070Z,9.96
2019-04-16T20:58:41.734Z,9.93
2019-04-16T21:01:11.393Z,9.91
2019-04-16T21:03:41.082Z,9.90
2019-04-16T21:06:10.748Z,9.87
2019-04-16T21:08:40.445Z,9.83
2019-04-16T21:11:10.092Z,9.82
2019-04-16T21:13:39.754Z,9.76
2019-04-16T21:16:09.439Z,9.77
2019-04-16T21:18:39.097Z,9.71
2019-04-16T21:21:08.770Z,9.63
2019-04-16T21:23:38.458Z,9.58
2019-04-16T21:26:08.107Z,9.55
2019-04-16T21:28:42.857Z,9.49
2019-04-16T21:31:18.334Z,9.49
2019-04-16T21:33:59.051Z,9.45
2019-04-16T21:36:59.462Z,9.39
2019-04-16T21:39:36.714Z,9.30
2019-04-16T21:42:06.445Z,9.26
2019-04-16T21:44:36.261Z,9.22
2019-04-16T21:47:05.945Z,9.21
2019-04-16T21:49:38.828Z,9.17
2019-04-16T21:52:07.077Z,9.17
2019-04-16T21:54:38.814Z,9.15
2019-04-16T21:57:13.156Z,9.15
2019-04-16T21:59:40.379Z,9.16
2019-04-16T22:02:27.554Z,9.10
2019-04-16T22:04:57.327Z,9.09
2019-04-16T22:07:27.095Z,9.03
2019-04-16T22:09:56.760Z,9.01
2019-04-16T22:12:26.578Z,8.99
2019-04-16T22:14:56.345Z,8.97
2019-04-16T22:17:25.993Z,8.98
2019-04-16T22:20:01.464Z,8.96
2019-04-16T22:22:27.819Z,8.93
2019-04-16T22:24:58.156Z,8.87
2019-04-16T22:27:27.820Z,8.82
2019-04-16T22:29:57.490Z,8.79
2019-04-16T22:32:30.883Z,8.74
2019-04-16T22:34:58.534Z,8.75
2019-04-16T22:37:28.181Z,8.80
2019-04-16T22:40:22.882Z,8.82
2019-04-16T22:43:06.258Z,8.82
2019-04-16T22:45:56.492Z,8.80
2019-04-16T22:48:26.154Z,8.73
2019-04-16T22:50:55.871Z,8.71
2019-04-16T22:53:25.545Z,8.66
2019-04-16T22:55:58.046Z,8.64
2019-04-16T22:58:47.023Z,8.64
2019-04-16T23:01:17.344Z,8.61
2019-04-16T23:03:49.761Z,8.55
2019-04-16T23:06:19.575Z,8.51
2019-04-16T23:08:50.246Z,8.44
2019-04-16T23:11:23.239Z,8.35
2019-04-16T23:13:51.344Z,8.31
2019-04-16T23:16:21.052Z,8.32
2019-04-16T23:18:50.772Z,8.31
2019-04-16T23:21:20.604Z,8.34
2019-04-16T23:23:51.243Z,8.37
2019-04-16T23:26:21.636Z,8.36
2019-04-16T23:28:51.262Z,8.34
2019-04-16T23:31:22.566Z,8.33
2019-04-16T23:33:52.381Z,8.31
2019-04-16T23:36:22.056Z,8.28
2019-04-16T23:38:51.801Z,8.24
2019-04-16T23:41:21.461Z,8.23
2019-04-16T23:44:00.204Z,8.21
2019-04-16T23:46:53.463Z,8.21
2019-04-16T23:49:28.893Z,8.18
2019-04-16T23:52:04.397Z,8.11
2019-04-16T23:54:40.753Z,8.07
2019-04-16T23:57:29.113Z,8.04
